sensor_id;sensor_type;location;lat;lon;timestamp;P1;durP1;ratioP1;P2;durP2;ratioP2
40815;SDS011;26535;48.788;9.214;2023-03-05T00:01:06;34.20;;;15.73;;
40815;SDS011;26535;48.788;9.214;2023-03-05T00:03:33;33.83;;;16.13;;
40815;SDS011;26535;48.788;9.214;2023-03-05T00:05:59;36.08;;;16.02;;
40815;SDS011;26535;48.788;9.214;2023-03-05T00:08:26;34.67;;;16.15;;
40815;SDS011;26535;48.788;9.214;2023-03-05T00:11:03;39.53;;;16.92;;
40815;SDS011;26535;48.788;9.214;2023-03-05T00:13:31;36.38;;;15.63;;
40815;SDS011;26535;48.788;9.214;2023-03-05T00:15:57;38.25;;;15.70;;
40815;SDS011;26535;48.788;9.214;2023-03-05T00:18:23;36.05;;;16.08;;
40815;SDS011;26535;48.788;9.214;2023-03-05T00:20:49;34.20;;;15.15;;
40815;SDS011;26535;48.788;9.214;2023-03-05T00:23:15;31.83;;;16.17;;
40815;SDS011;26535;48.788;9.214;2023-03-05T00:25:41;31.73;;;15.38;;
40815;SDS011;26535;48.788;9.214;2023-03-05T00:28:07;31.55;;;15.45;;
40815;SDS011;26535;48.788;9.214;2023-03-05T00:30:33;37.00;;;16.23;;
40815;SDS011;26535;48.788;9.214;2023-03-05T06:03:20;31.30;;;13.30;;
40815;SDS011;26535;48.788;9.214;2023-03-05T06:05:45;29.83;;;13.80;;
40815;SDS011;26535;48.788;9.214;2023-03-05T06:08:11;32.92;;;14.57;;
40815;SDS011;26535;48.788;9.214;2023-03-05T06:10:37;29.40;;;12.73;;
40815;SDS011;26535;48.788;9.214;2023-03-05T06:13:03;30.13;;;13.10;;
40815;SDS011;26535;48.788;9.214;2023-03-05T06:15:29;30.20;;;12.38;;
40815;SDS011;26535;48.788;9.214;2023-03-05T06:17:55;32.80;;;13.93;;
40815;SDS011;26535;48.788;9.214;2023-03-05T06:20:23;29.38;;;13.32;;
40815;SDS011;26535;48.788;9.214;2023-03-05T06:22:49;27.63;;;13.10;;
40815;SDS011;26535;48.788;9.214;2023-03-05T06:25:15;26.88;;;12.98;;
40815;SDS011;26535;48.788;9.214;2023-03-05T06:27:40;30.60;;;13.60;;
40815;SDS011;26535;48.788;9.214;2023-03-05T06:30:06;28.13;;;12.73;;
40815;SDS011;26535;48.788;9.214;2023-03-05T06:32:32;30.05;;;13.02;;
40815;SDS011;26535;48.788;9.214;2023-03-05T06:34:58;33.63;;;13.88;;
40815;SDS011;26535;48.788;9.214;2023-03-05T06:37:24;28.38;;;12.57;;
40815;SDS011;26535;48.788;9.214;2023-03-05T06:39:49;29.50;;;12.38;;
40815;SDS011;26535;48.788;9.214;2023-03-05T06:42:15;30.75;;;13.65;;
40815;SDS011;26535;48.788;9.214;2023-03-05T06:44:44;27.52;;;12.35;;
40815;SDS011;26535;48.788;9.214;2023-03-05T06:47:10;29.65;;;14.05;;
40815;SDS011;26535;48.788;9.214;2023-03-05T06:49:36;29.58;;;12.68;;
40815;SDS011;26535;48.788;9.214;2023-03-05T06:52:03;28.15;;;12.38;;
40815;SDS011;26535;48.788;9.214;2023-03-05T06:54:30;26.85;;;11.80;;
40815;SDS011;26535;48.788;9.214;2023-03-05T06:56:56;27.38;;;12.93;;
40815;SDS011;26535;48.788;9.214;2023-03-05T06:59:22;27.35;;;12.80;;
40815;SDS011;26535;48.788;9.214;2023-03-05T07:01:48;27.80;;;11.88;;
40815;SDS011;26535;48.788;9.214;2023-03-05T07:04:14;29.05;;;12.27;;
40815;SDS011;26535;48.788;9.214;2023-03-05T07:06:40;28.52;;;12.88;;
40815;SDS011;26535;48.788;9.214;2023-03-05T07:09:07;28.30;;;12.27;;
40815;SDS011;26535;48.788;9.214;2023-03-05T07:11:37;23.95;;;11.13;;
40815;SDS011;26535;48.788;9.214;2023-03-05T07:14:02;21.63;;;11.05;;
40815;SDS011;26535;48.788;9.214;2023-03-05T07:16:29;23.58;;;11.93;;
40815;SDS011;26535;48.788;9.214;2023-03-05T07:18:56;25.58;;;12.18;;
40815;SDS011;26535;48.788;9.214;2023-03-05T07:21:24;28.75;;;12.18;;
40815;SDS011;26535;48.788;9.214;2023-03-05T07:23:53;23.08;;;10.70;;
40815;SDS011;26535;48.788;9.214;2023-03-05T07:26:19;25.58;;;11.32;;
40815;SDS011;26535;48.788;9.214;2023-03-05T07:28:45;24.88;;;11.70;;
40815;SDS011;26535;48.788;9.214;2023-03-05T07:31:12;26.75;;;11.98;;
40815;SDS011;26535;48.788;9.214;2023-03-05T07:36:09;23.77;;;10.90;;
40815;SDS011;26535;48.788;9.214;2023-03-05T07:38:35;24.40;;;11.63;;
40815;SDS011;26535;48.788;9.214;2023-03-05T07:41:11;26.75;;;12.25;;
40815;SDS011;26535;48.788;9.214;2023-03-05T07:43:43;28.38;;;11.95;;
40815;SDS011;26535;48.788;9.214;2023-03-05T07:46:10;23.17;;;12.13;;
40815;SDS011;26535;48.788;9.214;2023-03-05T07:48:37;27.07;;;11.93;;
40815;SDS011;26535;48.788;9.214;2023-03-05T07:51:04;22.38;;;11.15;;
40815;SDS011;26535;48.788;9.214;2023-03-05T07:53:31;23.83;;;11.65;;
40815;SDS011;26535;48.788;9.214;2023-03-05T07:55:57;22.15;;;11.20;;
40815;SDS011;26535;48.788;9.214;2023-03-05T07:58:23;23.98;;;10.98;;
40815;SDS011;26535;48.788;9.214;2023-03-05T08:00:49;26.17;;;12.27;;
40815;SDS011;26535;48.788;9.214;2023-03-05T08:03:15;25.15;;;10.88;;
40815;SDS011;26535;48.788;9.214;2023-03-05T08:05:41;23.70;;;11.75;;
40815;SDS011;26535;48.788;9.214;2023-03-05T08:08:07;21.42;;;10.85;;
40815;SDS011;26535;48.788;9.214;2023-03-05T08:10:34;25.92;;;12.32;;
40815;SDS011;26535;48.788;9.214;2023-03-05T08:13:01;24.55;;;12.40;;
40815;SDS011;26535;48.788;9.214;2023-03-05T08:15:27;25.55;;;12.82;;
40815;SDS011;26535;48.788;9.214;2023-03-05T08:17:52;23.83;;;10.82;;
40815;SDS011;26535;48.788;9.214;2023-03-05T08:20:18;24.40;;;10.75;;
40815;SDS011;26535;48.788;9.214;2023-03-05T08:22:45;23.95;;;11.48;;
40815;SDS011;26535;48.788;9.214;2023-03-05T08:25:11;25.90;;;11.05;;
40815;SDS011;26535;48.788;9.214;2023-03-05T08:27:38;24.70;;;10.80;;
40815;SDS011;26535;48.788;9.214;2023-03-05T08:30:05;23.40;;;11.00;;
40815;SDS011;26535;48.788;9.214;2023-03-05T08:32:33;22.60;;;10.73;;
40815;SDS011;26535;48.788;9.214;2023-03-05T08:34:58;22.20;;;10.98;;
40815;SDS011;26535;48.788;9.214;2023-03-05T08:37:25;22.70;;;10.05;;
40815;SDS011;26535;48.788;9.214;2023-03-05T08:39:51;23.35;;;10.43;;
40815;SDS011;26535;48.788;9.214;2023-03-05T08:42:17;22.70;;;10.90;;
40815;SDS011;26535;48.788;9.214;2023-03-05T08:44:42;21.65;;;10.95;;
40815;SDS011;26535;48.788;9.214;2023-03-05T08:47:08;23.10;;;11.55;;
40815;SDS011;26535;48.788;9.214;2023-03-05T08:49:34;20.35;;;9.85;;
40815;SDS011;26535;48.788;9.214;2023-03-05T08:51:59;23.65;;;10.98;;
40815;SDS011;26535;48.788;9.214;2023-03-05T08:54:25;26.58;;;10.45;;
40815;SDS011;26535;48.788;9.214;2023-03-05T08:56:53;23.00;;;10.70;;
40815;SDS011;26535;48.788;9.214;2023-03-05T08:59:19;22.27;;;10.88;;
40815;SDS011;26535;48.788;9.214;2023-03-05T09:01:45;27.08;;;11.32;;
40815;SDS011;26535;48.788;9.214;2023-03-05T09:04:11;21.60;;;11.20;;
40815;SDS011;26535;48.788;9.214;2023-03-05T09:06:37;21.35;;;10.68;;
40815;SDS011;26535;48.788;9.214;2023-03-05T09:09:05;24.40;;;10.88;;
40815;SDS011;26535;48.788;9.214;2023-03-05T09:11:32;21.08;;;10.60;;
40815;SDS011;26535;48.788;9.214;2023-03-05T09:14:03;24.17;;;11.02;;
40815;SDS011;26535;48.788;9.214;2023-03-05T09:16:29;23.75;;;11.80;;
40815;SDS011;26535;48.788;9.214;2023-03-05T09:18:55;24.45;;;11.13;;
40815;SDS011;26535;48.788;9.214;2023-03-05T09:21:22;22.45;;;11.38;;
40815;SDS011;26535;48.788;9.214;2023-03-05T09:23:47;21.08;;;10.30;;
40815;SDS011;26535;48.788;9.214;2023-03-05T09:26:14;25.48;;;11.02;;
40815;SDS011;26535;48.788;9.214;2023-03-05T09:28:43;23.15;;;11.40;;
40815;SDS011;26535;48.788;9.214;2023-03-05T09:31:09;23.25;;;11.48;;
40815;SDS011;26535;48.788;9.214;2023-03-05T09:33:36;22.30;;;10.35;;
40815;SDS011;26535;48.788;9.214;2023-03-05T09:36:03;23.40;;;11.27;;
40815;SDS011;26535;48.788;9.214;2023-03-05T09:38:30;24.63;;;11.25;;
40815;SDS011;26535;48.788;9.214;2023-03-05T09:46:10;21.83;;;10.75;;
40815;SDS011;26535;48.788;9.214;2023-03-05T09:51:42;17.70;;;9.80;;
40815;SDS011;26535;48.788;9.214;2023-03-05T09:54:21;19.27;;;10.70;;
40815;SDS011;26535;48.788;9.214;2023-03-05T09:56:53;24.63;;;11.45;;
40815;SDS011;26535;48.788;9.214;2023-03-05T10:00:07;21.58;;;11.02;;
40815;SDS011;26535;48.788;9.214;2023-03-05T10:02:12;24.00;;;11.63;;
40815;SDS011;26535;48.788;9.214;2023-03-05T10:07:45;20.25;;;11.20;;
40815;SDS011;26535;48.788;9.214;2023-03-05T10:10:52;21.33;;;11.52;;
40815;SDS011;26535;48.788;9.214;2023-03-05T10:13:20;21.83;;;11.70;;
40815;SDS011;26535;48.788;9.214;2023-03-05T10:16:01;25.80;;;12.60;;
40815;SDS011;26535;48.788;9.214;2023-03-05T10:21:19;24.80;;;11.82;;
40815;SDS011;26535;48.788;9.214;2023-03-05T10:26:58;25.83;;;11.18;;
40815;SDS011;26535;48.788;9.214;2023-03-05T10:29:59;22.13;;;10.40;;
40815;SDS011;26535;48.788;9.214;2023-03-05T10:32:41;22.20;;;10.87;;
40815;SDS011;26535;48.788;9.214;2023-03-05T10:46:55;21.02;;;10.90;;
40815;SDS011;26535;48.788;9.214;2023-03-05T10:52:23;22.75;;;11.38;;
40815;SDS011;26535;48.788;9.214;2023-03-05T10:54:56;23.70;;;11.43;;
40815;SDS011;26535;48.788;9.214;2023-03-05T10:57:23;22.45;;;11.48;;
40815;SDS011;26535;48.788;9.214;2023-03-05T11:00:32;24.00;;;12.15;;
40815;SDS011;26535;48.788;9.214;2023-03-05T11:13:57;22.45;;;10.70;;
40815;SDS011;26535;48.788;9.214;2023-03-05T11:16:28;22.45;;;11.13;;
40815;SDS011;26535;48.788;9.214;2023-03-05T11:24:39;25.23;;;11.07;;
40815;SDS011;26535;48.788;9.214;2023-03-05T11:27:22;24.13;;;11.65;;
40815;SDS011;26535;48.788;9.214;2023-03-05T11:29:48;26.70;;;12.82;;
40815;SDS011;26535;48.788;9.214;2023-03-05T11:32:15;23.27;;;12.25;;
40815;SDS011;26535;48.788;9.214;2023-03-05T11:34:41;25.88;;;12.07;;
40815;SDS011;26535;48.788;9.214;2023-03-05T11:37:09;24.63;;;11.90;;
40815;SDS011;26535;48.788;9.214;2023-03-05T11:39:46;25.23;;;11.60;;
40815;SDS011;26535;48.788;9.214;2023-03-05T11:42:13;22.75;;;11.90;;
40815;SDS011;26535;48.788;9.214;2023-03-05T11:44:49;24.20;;;11.07;;
40815;SDS011;26535;48.788;9.214;2023-03-05T11:50:23;23.30;;;11.90;;
40815;SDS011;26535;48.788;9.214;2023-03-05T11:52:51;22.70;;;11.45;;
40815;SDS011;26535;48.788;9.214;2023-03-05T11:55:26;24.23;;;10.73;;
40815;SDS011;26535;48.788;9.214;2023-03-05T12:00:45;24.98;;;11.38;;
40815;SDS011;26535;48.788;9.214;2023-03-05T12:03:23;21.70;;;11.32;;
40815;SDS011;26535;48.788;9.214;2023-03-05T12:09:01;21.48;;;10.73;;
40815;SDS011;26535;48.788;9.214;2023-03-05T12:12:03;20.60;;;10.73;;
40815;SDS011;26535;48.788;9.214;2023-03-05T12:14:55;21.40;;;10.73;;
40815;SDS011;26535;48.788;9.214;2023-03-05T12:17:29;24.50;;;11.57;;
40815;SDS011;26535;48.788;9.214;2023-03-05T12:23:20;19.00;;;9.02;;
40815;SDS011;26535;48.788;9.214;2023-03-05T12:25:47;17.85;;;8.57;;
40815;SDS011;26535;48.788;9.214;2023-03-05T12:30:54;20.13;;;9.27;;
40815;SDS011;26535;48.788;9.214;2023-03-05T12:38:52;18.00;;;8.85;;
40815;SDS011;26535;48.788;9.214;2023-03-05T12:46:32;17.52;;;8.70;;
40815;SDS011;26535;48.788;9.214;2023-03-05T12:48:59;21.92;;;9.73;;
40815;SDS011;26535;48.788;9.214;2023-03-05T12:51:53;17.33;;;8.75;;
40815;SDS011;26535;48.788;9.214;2023-03-05T12:54:35;19.92;;;9.88;;
40815;SDS011;26535;48.788;9.214;2023-03-05T12:57:18;19.77;;;10.00;;
40815;SDS011;26535;48.788;9.214;2023-03-05T13:00:00;21.10;;;10.57;;
40815;SDS011;26535;48.788;9.214;2023-03-05T13:02:38;22.73;;;10.32;;
40815;SDS011;26535;48.788;9.214;2023-03-05T13:07:46;21.35;;;10.52;;
40815;SDS011;26535;48.788;9.214;2023-03-05T13:10:23;19.92;;;10.00;;
40815;SDS011;26535;48.788;9.214;2023-03-05T13:12:52;20.65;;;10.43;;
40815;SDS011;26535;48.788;9.214;2023-03-05T13:15:21;20.67;;;10.02;;
40815;SDS011;26535;48.788;9.214;2023-03-05T13:17:53;21.83;;;9.38;;
40815;SDS011;26535;48.788;9.214;2023-03-05T13:20:26;20.27;;;10.05;;
40815;SDS011;26535;48.788;9.214;2023-03-05T13:25:43;20.08;;;9.65;;
40815;SDS011;26535;48.788;9.214;2023-03-05T13:28:14;22.65;;;9.77;;
40815;SDS011;26535;48.788;9.214;2023-03-05T13:30:54;20.45;;;9.48;;
40815;SDS011;26535;48.788;9.214;2023-03-05T13:33:52;19.35;;;10.48;;
40815;SDS011;26535;48.788;9.214;2023-03-05T13:36:21;19.35;;;9.52;;
40815;SDS011;26535;48.788;9.214;2023-03-05T13:38:49;21.83;;;10.45;;
40815;SDS011;26535;48.788;9.214;2023-03-05T13:41:23;22.40;;;10.05;;
40815;SDS011;26535;48.788;9.214;2023-03-05T13:43:58;18.92;;;10.23;;
40815;SDS011;26535;48.788;9.214;2023-03-05T13:46:35;21.73;;;9.68;;
40815;SDS011;26535;48.788;9.214;2023-03-05T13:51:58;19.67;;;9.15;;
40815;SDS011;26535;48.788;9.214;2023-03-05T13:54:24;17.73;;;9.52;;
40815;SDS011;26535;48.788;9.214;2023-03-05T13:56:58;20.30;;;9.50;;
40815;SDS011;26535;48.788;9.214;2023-03-05T13:59:30;19.63;;;9.65;;
40815;SDS011;26535;48.788;9.214;2023-03-05T14:02:14;16.58;;;8.27;;
40815;SDS011;26535;48.788;9.214;2023-03-05T14:04:43;17.27;;;8.50;;
40815;SDS011;26535;48.788;9.214;2023-03-05T14:09:46;18.65;;;8.98;;
40815;SDS011;26535;48.788;9.214;2023-03-05T14:12:22;17.95;;;9.13;;
40815;SDS011;26535;48.788;9.214;2023-03-05T14:14:57;20.27;;;8.77;;
40815;SDS011;26535;48.788;9.214;2023-03-05T14:22:38;16.95;;;8.57;;
40815;SDS011;26535;48.788;9.214;2023-03-05T14:25:05;19.27;;;9.60;;
40815;SDS011;26535;48.788;9.214;2023-03-05T14:27:57;17.90;;;9.15;;
40815;SDS011;26535;48.788;9.214;2023-03-05T14:30:24;20.38;;;9.75;;
40815;SDS011;26535;48.788;9.214;2023-03-05T14:32:52;20.38;;;9.23;;
40815;SDS011;26535;48.788;9.214;2023-03-05T14:35:20;19.67;;;9.95;;
40815;SDS011;26535;48.788;9.214;2023-03-05T14:37:48;18.92;;;9.85;;
40815;SDS011;26535;48.788;9.214;2023-03-05T14:40:26;21.00;;;9.45;;
40815;SDS011;26535;48.788;9.214;2023-03-05T14:42:57;21.25;;;10.13;;
40815;SDS011;26535;48.788;9.214;2023-03-05T14:45:29;19.45;;;9.63;;
40815;SDS011;26535;48.788;9.214;2023-03-05T14:47:56;21.38;;;10.20;;
40815;SDS011;26535;48.788;9.214;2023-03-05T14:50:27;21.30;;;9.90;;
40815;SDS011;26535;48.788;9.214;2023-03-05T14:52:59;17.75;;;8.40;;
40815;SDS011;26535;48.788;9.214;2023-03-05T14:55:28;17.20;;;9.25;;
40815;SDS011;26535;48.788;9.214;2023-03-05T14:58:01;21.48;;;8.80;;
40815;SDS011;26535;48.788;9.214;2023-03-05T15:00:35;18.38;;;8.73;;
40815;SDS011;26535;48.788;9.214;2023-03-05T15:03:00;24.73;;;10.45;;
40815;SDS011;26535;48.788;9.214;2023-03-05T15:05:27;19.50;;;9.48;;
40815;SDS011;26535;48.788;9.214;2023-03-05T15:07:52;21.50;;;10.50;;
40815;SDS011;26535;48.788;9.214;2023-03-05T15:10:19;22.08;;;10.77;;
40815;SDS011;26535;48.788;9.214;2023-03-05T15:12:47;24.40;;;11.05;;
40815;SDS011;26535;48.788;9.214;2023-03-05T15:15:15;21.50;;;10.93;;
40815;SDS011;26535;48.788;9.214;2023-03-05T15:17:45;22.02;;;10.98;;
40815;SDS011;26535;48.788;9.214;2023-03-05T15:20:19;23.10;;;11.20;;
40815;SDS011;26535;48.788;9.214;2023-03-05T15:22:46;24.75;;;10.80;;
40815;SDS011;26535;48.788;9.214;2023-03-05T15:25:12;23.63;;;11.55;;
40815;SDS011;26535;48.788;9.214;2023-03-05T15:27:38;24.73;;;11.43;;
40815;SDS011;26535;48.788;9.214;2023-03-05T15:30:05;23.10;;;11.93;;
40815;SDS011;26535;48.788;9.214;2023-03-05T15:32:32;23.00;;;11.23;;
40815;SDS011;26535;48.788;9.214;2023-03-05T15:34:59;22.13;;;10.50;;
40815;SDS011;26535;48.788;9.214;2023-03-05T15:37:25;25.08;;;11.40;;
40815;SDS011;26535;48.788;9.214;2023-03-05T15:39:51;21.50;;;10.18;;
40815;SDS011;26535;48.788;9.214;2023-03-05T15:42:17;20.60;;;10.85;;
40815;SDS011;26535;48.788;9.214;2023-03-05T15:44:43;22.35;;;10.52;;
40815;SDS011;26535;48.788;9.214;2023-03-05T15:47:09;24.65;;;10.73;;
40815;SDS011;26535;48.788;9.214;2023-03-05T15:49:35;24.38;;;11.52;;
40815;SDS011;26535;48.788;9.214;2023-03-05T15:52:01;21.58;;;11.05;;
40815;SDS011;26535;48.788;9.214;2023-03-05T15:54:26;26.90;;;12.63;;
40815;SDS011;26535;48.788;9.214;2023-03-05T15:56:52;24.65;;;11.50;;
40815;SDS011;26535;48.788;9.214;2023-03-05T15:59:18;21.73;;;10.30;;
40815;SDS011;26535;48.788;9.214;2023-03-05T16:01:48;24.05;;;10.95;;
40815;SDS011;26535;48.788;9.214;2023-03-05T16:04:16;21.40;;;10.75;;
40815;SDS011;26535;48.788;9.214;2023-03-05T16:06:45;22.50;;;11.13;;
40815;SDS011;26535;48.788;9.214;2023-03-05T16:09:13;26.10;;;11.38;;
40815;SDS011;26535;48.788;9.214;2023-03-05T16:11:41;22.20;;;10.73;;
40815;SDS011;26535;48.788;9.214;2023-03-05T16:14:12;20.00;;;9.88;;
40815;SDS011;26535;48.788;9.214;2023-03-05T16:16:41;20.92;;;9.48;;
40815;SDS011;26535;48.788;9.214;2023-03-05T16:19:08;22.77;;;10.02;;
40815;SDS011;26535;48.788;9.214;2023-03-05T16:21:35;21.88;;;10.85;;
40815;SDS011;26535;48.788;9.214;2023-03-05T16:24:00;21.63;;;9.60;;
40815;SDS011;26535;48.788;9.214;2023-03-05T16:26:27;18.65;;;9.18;;
40815;SDS011;26535;48.788;9.214;2023-03-05T16:28:52;22.25;;;9.98;;
40815;SDS011;26535;48.788;9.214;2023-03-05T16:31:18;17.90;;;8.73;;
40815;SDS011;26535;48.788;9.214;2023-03-05T16:33:44;17.45;;;9.45;;
40815;SDS011;26535;48.788;9.214;2023-03-05T16:39:03;18.10;;;8.85;;
40815;SDS011;26535;48.788;9.214;2023-03-05T16:41:29;19.20;;;9.70;;
40815;SDS011;26535;48.788;9.214;2023-03-05T16:43:55;22.67;;;8.65;;
40815;SDS011;26535;48.788;9.214;2023-03-05T16:46:24;21.05;;;8.13;;
40815;SDS011;26535;48.788;9.214;2023-03-05T16:48:52;17.42;;;8.00;;
40815;SDS011;26535;48.788;9.214;2023-03-05T16:51:18;16.58;;;8.77;;
40815;SDS011;26535;48.788;9.214;2023-03-05T16:53:44;20.30;;;8.68;;
40815;SDS011;26535;48.788;9.214;2023-03-05T16:56:10;18.30;;;8.13;;
40815;SDS011;26535;48.788;9.214;2023-03-05T16:58:36;17.63;;;8.88;;
40815;SDS011;26535;48.788;9.214;2023-03-05T17:01:11;18.33;;;8.05;;
40815;SDS011;26535;48.788;9.214;2023-03-05T17:03:40;15.07;;;7.95;;
40815;SDS011;26535;48.788;9.214;2023-03-05T17:06:14;15.33;;;7.63;;
40815;SDS011;26535;48.788;9.214;2023-03-05T17:08:45;19.48;;;8.75;;
40815;SDS011;26535;48.788;9.214;2023-03-05T17:11:12;18.13;;;8.90;;
40815;SDS011;26535;48.788;9.214;2023-03-05T17:13:38;17.75;;;8.20;;
40815;SDS011;26535;48.788;9.214;2023-03-05T17:16:04;14.32;;;8.27;;
40815;SDS011;26535;48.788;9.214;2023-03-05T17:18:31;17.48;;;8.18;;
40815;SDS011;26535;48.788;9.214;2023-03-05T17:20:57;18.92;;;7.97;;
40815;SDS011;26535;48.788;9.214;2023-03-05T17:23:23;17.35;;;8.43;;
40815;SDS011;26535;48.788;9.214;2023-03-05T17:25:49;15.32;;;8.20;;
40815;SDS011;26535;48.788;9.214;2023-03-05T17:28:15;15.75;;;8.43;;
40815;SDS011;26535;48.788;9.214;2023-03-05T17:30:41;15.88;;;7.88;;
40815;SDS011;26535;48.788;9.214;2023-03-05T17:33:10;18.67;;;8.52;;
40815;SDS011;26535;48.788;9.214;2023-03-05T17:35:36;17.35;;;8.07;;
40815;SDS011;26535;48.788;9.214;2023-03-05T17:38:03;16.67;;;7.97;;
40815;SDS011;26535;48.788;9.214;2023-03-05T17:40:31;16.65;;;8.38;;
40815;SDS011;26535;48.788;9.214;2023-03-05T17:42:58;18.25;;;8.13;;
40815;SDS011;26535;48.788;9.214;2023-03-05T17:45:24;18.35;;;8.95;;
40815;SDS011;26535;48.788;9.214;2023-03-05T17:47:50;14.05;;;7.88;;
40815;SDS011;26535;48.788;9.214;2023-03-05T17:50:19;16.33;;;8.50;;
40815;SDS011;26535;48.788;9.214;2023-03-05T17:52:45;19.08;;;9.18;;
40815;SDS011;26535;48.788;9.214;2023-03-05T17:55:12;18.17;;;9.32;;
40815;SDS011;26535;48.788;9.214;2023-03-05T17:57:40;20.83;;;9.13;;
40815;SDS011;26535;48.788;9.214;2023-03-05T18:00:07;17.33;;;9.05;;
40815;SDS011;26535;48.788;9.214;2023-03-05T18:02:52;18.13;;;9.30;;
40815;SDS011;26535;48.788;9.214;2023-03-05T18:05:19;19.92;;;9.90;;
40815;SDS011;26535;48.788;9.214;2023-03-05T18:07:47;23.45;;;10.27;;
40815;SDS011;26535;48.788;9.214;2023-03-05T18:10:15;22.23;;;10.83;;
40815;SDS011;26535;48.788;9.214;2023-03-05T18:12:45;19.25;;;10.10;;
40815;SDS011;26535;48.788;9.214;2023-03-05T18:15:12;19.10;;;9.57;;
40815;SDS011;26535;48.788;9.214;2023-03-05T18:17:40;19.55;;;9.55;;
40815;SDS011;26535;48.788;9.214;2023-03-05T18:20:06;18.92;;;9.13;;
40815;SDS011;26535;48.788;9.214;2023-03-05T18:22:43;20.48;;;9.15;;
40815;SDS011;26535;48.788;9.214;2023-03-05T18:25:09;19.98;;;9.45;;
40815;SDS011;26535;48.788;9.214;2023-03-05T18:27:35;21.90;;;10.15;;
40815;SDS011;26535;48.788;9.214;2023-03-05T18:30:01;19.63;;;9.82;;
40815;SDS011;26535;48.788;9.214;2023-03-05T18:32:27;19.55;;;9.18;;
40815;SDS011;26535;48.788;9.214;2023-03-05T18:34:53;18.33;;;9.02;;
40815;SDS011;26535;48.788;9.214;2023-03-05T18:37:19;19.35;;;9.48;;
40815;SDS011;26535;48.788;9.214;2023-03-05T18:39:44;16.63;;;8.82;;
40815;SDS011;26535;48.788;9.214;2023-03-05T18:42:11;20.80;;;10.65;;
40815;SDS011;26535;48.788;9.214;2023-03-05T18:44:38;18.10;;;9.40;;
40815;SDS011;26535;48.788;9.214;2023-03-05T18:47:04;19.67;;;10.38;;
40815;SDS011;26535;48.788;9.214;2023-03-05T18:49:29;20.23;;;9.75;;
40815;SDS011;26535;48.788;9.214;2023-03-05T18:51:55;21.20;;;10.70;;
40815;SDS011;26535;48.788;9.214;2023-03-05T18:54:21;21.88;;;10.38;;
40815;SDS011;26535;48.788;9.214;2023-03-05T18:56:46;20.15;;;10.27;;
40815;SDS011;26535;48.788;9.214;2023-03-05T18:59:12;22.75;;;10.60;;
40815;SDS011;26535;48.788;9.214;2023-03-05T19:01:38;23.13;;;10.75;;
40815;SDS011;26535;48.788;9.214;2023-03-05T19:04:04;22.73;;;11.52;;
40815;SDS011;26535;48.788;9.214;2023-03-05T19:06:29;26.77;;;12.45;;
40815;SDS011;26535;48.788;9.214;2023-03-05T19:08:55;22.38;;;12.23;;
40815;SDS011;26535;48.788;9.214;2023-03-05T19:11:23;27.65;;;12.57;;
40815;SDS011;26535;48.788;9.214;2023-03-05T19:13:49;24.33;;;12.05;;
40815;SDS011;26535;48.788;9.214;2023-03-05T19:16:16;31.77;;;13.40;;
40815;SDS011;26535;48.788;9.214;2023-03-05T19:18:51;24.58;;;12.10;;
40815;SDS011;26535;48.788;9.214;2023-03-05T19:21:44;23.90;;;11.85;;
40815;SDS011;26535;48.788;9.214;2023-03-05T19:24:12;23.63;;;12.07;;
40815;SDS011;26535;48.788;9.214;2023-03-05T19:26:38;27.25;;;12.88;;
40815;SDS011;26535;48.788;9.214;2023-03-05T19:29:06;29.55;;;14.25;;
40815;SDS011;26535;48.788;9.214;2023-03-05T19:31:32;27.63;;;13.45;;
40815;SDS011;26535;48.788;9.214;2023-03-05T19:33:59;28.60;;;12.85;;
40815;SDS011;26535;48.788;9.214;2023-03-05T19:36:25;28.38;;;14.02;;
40815;SDS011;26535;48.788;9.214;2023-03-05T19:38:51;26.65;;;13.65;;
40815;SDS011;26535;48.788;9.214;2023-03-05T19:41:17;30.17;;;13.77;;
40815;SDS011;26535;48.788;9.214;2023-03-05T19:43:45;29.95;;;14.48;;
40815;SDS011;26535;48.788;9.214;2023-03-05T19:46:14;29.80;;;14.18;;
40815;SDS011;26535;48.788;9.214;2023-03-05T19:48:41;27.10;;;13.95;;
40815;SDS011;26535;48.788;9.214;2023-03-05T19:51:08;27.77;;;13.55;;
40815;SDS011;26535;48.788;9.214;2023-03-05T19:53:38;26.67;;;12.82;;
40815;SDS011;26535;48.788;9.214;2023-03-05T19:56:05;27.50;;;13.80;;
40815;SDS011;26535;48.788;9.214;2023-03-05T19:58:34;24.45;;;12.18;;
40815;SDS011;26535;48.788;9.214;2023-03-05T20:03:39;27.70;;;13.38;;
40815;SDS011;26535;48.788;9.214;2023-03-05T20:06:07;28.50;;;14.32;;
40815;SDS011;26535;48.788;9.214;2023-03-05T20:08:33;30.17;;;14.82;;
40815;SDS011;26535;48.788;9.214;2023-03-05T20:10:59;29.38;;;15.20;;
40815;SDS011;26535;48.788;9.214;2023-03-05T20:13:25;30.27;;;14.45;;
40815;SDS011;26535;48.788;9.214;2023-03-05T20:15:51;27.17;;;13.50;;
40815;SDS011;26535;48.788;9.214;2023-03-05T20:18:17;30.58;;;14.43;;
40815;SDS011;26535;48.788;9.214;2023-03-05T20:20:43;23.90;;;13.18;;
40815;SDS011;26535;48.788;9.214;2023-03-05T20:23:17;24.35;;;13.80;;
40815;SDS011;26535;48.788;9.214;2023-03-05T20:25:42;27.38;;;13.82;;
40815;SDS011;26535;48.788;9.214;2023-03-05T20:28:08;26.33;;;13.70;;
40815;SDS011;26535;48.788;9.214;2023-03-05T20:30:34;29.70;;;13.73;;
40815;SDS011;26535;48.788;9.214;2023-03-05T20:33:00;28.42;;;13.73;;
40815;SDS011;26535;48.788;9.214;2023-03-05T20:35:25;25.27;;;12.60;;
40815;SDS011;26535;48.788;9.214;2023-03-05T20:37:52;22.25;;;11.23;;
40815;SDS011;26535;48.788;9.214;2023-03-05T20:40:51;20.75;;;10.02;;
40815;SDS011;26535;48.788;9.214;2023-03-05T20:43:18;23.00;;;11.85;;
40815;SDS011;26535;48.788;9.214;2023-03-05T20:45:45;22.80;;;11.13;;
40815;SDS011;26535;48.788;9.214;2023-03-05T20:48:11;21.75;;;10.93;;
40815;SDS011;26535;48.788;9.214;2023-03-05T20:50:37;22.65;;;11.25;;
40815;SDS011;26535;48.788;9.214;2023-03-05T20:53:05;21.83;;;11.13;;
40815;SDS011;26535;48.788;9.214;2023-03-05T20:55:33;21.25;;;10.90;;
40815;SDS011;26535;48.788;9.214;2023-03-05T20:57:59;22.55;;;11.13;;
40815;SDS011;26535;48.788;9.214;2023-03-05T21:00:25;20.83;;;10.40;;
40815;SDS011;26535;48.788;9.214;2023-03-05T21:02:52;22.35;;;10.85;;
40815;SDS011;26535;48.788;9.214;2023-03-05T21:05:24;22.92;;;10.68;;
40815;SDS011;26535;48.788;9.214;2023-03-05T21:07:54;21.73;;;10.13;;
40815;SDS011;26535;48.788;9.214;2023-03-05T21:10:24;19.80;;;9.80;;
40815;SDS011;26535;48.788;9.214;2023-03-05T21:12:50;21.73;;;11.13;;
40815;SDS011;26535;48.788;9.214;2023-03-05T21:15:18;23.60;;;11.25;;
40815;SDS011;26535;48.788;9.214;2023-03-05T21:17:45;24.90;;;11.75;;
40815;SDS011;26535;48.788;9.214;2023-03-05T21:20:12;22.42;;;12.05;;
40815;SDS011;26535;48.788;9.214;2023-03-05T21:22:40;24.55;;;12.57;;
40815;SDS011;26535;48.788;9.214;2023-03-05T21:25:09;27.05;;;12.50;;
40815;SDS011;26535;48.788;9.214;2023-03-05T21:30:35;18.77;;;10.57;;
40815;SDS011;26535;48.788;9.214;2023-03-05T21:33:10;20.88;;;10.90;;
40815;SDS011;26535;48.788;9.214;2023-03-05T21:35:40;18.30;;;10.18;;
40815;SDS011;26535;48.788;9.214;2023-03-05T21:38:07;19.60;;;9.82;;
40815;SDS011;26535;48.788;9.214;2023-03-05T21:40:34;18.98;;;10.20;;
40815;SDS011;26535;48.788;9.214;2023-03-05T21:43:01;16.92;;;8.93;;
40815;SDS011;26535;48.788;9.214;2023-03-05T21:45:27;19.90;;;9.95;;
40815;SDS011;26535;48.788;9.214;2023-03-05T21:47:55;19.02;;;10.27;;